This is the latest recevied weather packets stored in our database for station/object WA4OPQ-1. If no packets are shown the sender has not sent any weather packets the latest 10 day(s).
| Time | Temp. | Humidity | Pressure | Rain* | Wind** | Luminosity | Snow |
|---|---|---|---|---|---|---|---|
| 1787867972 | 27.78° C | 81% | 1010.8 hPa | 0 mm | 0 m/s | 58 W/m² | - |
| 1787867446 | 27.78° C | 82% | 1010.9 hPa | 0 mm | 0 m/s | 62 W/m² | - |
| 1787866968 | 27.78° C | 81% | 1011 hPa | 0 mm | 0 m/s | 66 W/m² | - |
| 1787866383 | 28.33° C | 82% | 1011 hPa | 0 mm | 0 m/s | 131 W/m² | - |
| 1787865786 | 29.44° C | 76% | 1010.9 hPa | 0 mm | 0 m/s | 168 W/m² | - |
| 1787865206 | 30° C | 77% | 1010.9 hPa | 0 mm | 0 m/s | 316 W/m² | - |
| 1787864613 | 30° C | 77% | 1010.8 hPa | 0 mm | 0 m/s | 432 W/m² | - |
| 1787864073 | 28.33° C | 83% | 1011.2 hPa | 0 mm | 0 m/s | 263 W/m² | - |
| 1787863543 | 29.44° C | 79% | 1011.1 hPa | 0 mm | 0 m/s | 142 W/m² | - |
| 1787863028 | 30.56° C | 77% | 1011.1 hPa | 0 mm | 0 m/s | 192 W/m² | - |
| 1787862468 | 30° C | 74% | 1011.2 hPa | 0 mm | 0 m/s | 446 W/m² | - |
| 1787861926 | 30° C | 78% | 1011.1 hPa | 0 mm | 0 m/s | 569 W/m² | - |
| 1787861335 | 31.67° C | 70% | 1011 hPa | 0 mm | 0.45 m/s, 317° | 150 W/m² | - |
| 1787860783 | 31.11° C | 72% | 1011.3 hPa | 0 mm | 0 m/s | 566 W/m² | - |
| 1787860183 | 31.11° C | 72% | 1011 hPa | 0 mm | 0 m/s | 579 W/m² | - |
| 1787859583 | 30.56° C | 72% | 1011.4 hPa | 0 mm | 0 m/s | 611 W/m² | - |
| 1787858998 | 31.11° C | 69% | 1011.3 hPa | 0 mm | 0 m/s | 631 W/m² | - |
| 1787858466 | 30.56° C | 70% | 1011.5 hPa | 0 mm | 0 m/s | 621 W/m² | - |
| 1787857933 | 31.11° C | 72% | 1011.4 hPa | 0 mm | 0 m/s | 633 W/m² | - |
| 1787857438 | 30.56° C | 73% | 1011.5 hPa | 0 mm | 0 m/s | 631 W/m² | - |
| 1787856918 | 30.56° C | 70% | 1011.4 hPa | 0 mm | 0 m/s | 619 W/m² | - |
| 1787856388 | 30.56° C | 75% | 1011.7 hPa | 0 mm | 0.45 m/s, 312° | 633 W/m² | - |
| 1787855833 | 30.56° C | 72% | 1012 hPa | 0 mm | 0.45 m/s, 325° | 640 W/m² | - |
| 1787855273 | 30° C | 74% | 1012.1 hPa | 0 mm | 0 m/s | 650 W/m² | - |
| 1787854683 | 30° C | 74% | 1012.2 hPa | 0 mm | 0 m/s | 665 W/m² | - |
* Rain latest hour (hover to see other rain measurements)
** Current wind speed in m/s (hover to see current wind gust speed)